Time;durP1;ratioP1;P1;durP2;ratioP2;P2;SDS_P1;SDS_P2;PMS_P1;PMS_P2;Temp;Humidity;BMP_temperature;BMP_pressure;BME280_temperature;BME280_humidity;BME280_pressure;Samples;Min_cycle;Max_cycle;Signal;HPM_P1;HPM_P2
2021/12/03 00:01:45;;;;;;;;;;;8.30;93.80;;;;;;4708459;27;20353;-72
2021/12/03 00:04:01;;;;;;;;;;;8.30;93.90;;;;;;4707175;27;19939;-72
2021/12/03 00:06:18;;;;;;;;;;;8.30;93.90;;;;;;4707116;27;20014;-72
2021/12/03 00:08:37;;;;;;;;;;;8.30;93.90;;;;;;4707109;27;20372;-72
2021/12/03 00:10:56;;;;;;;;;;;8.30;93.90;;;;;;4706966;27;20447;-72
2021/12/03 00:13:18;;;;;;;;;;;8.20;93.80;;;;;;4706837;27;20022;-72
2021/12/03 00:15:36;;;;;;;;;;;8.20;93.80;;;;;;4708573;27;20374;-72
2021/12/03 00:17:55;;;;;;;;;;;8.20;93.80;;;;;;4706645;27;19968;-72
2021/12/03 00:20:13;;;;;;;;;;;8.20;93.90;;;;;;4708305;27;19955;-72
2021/12/03 00:22:30;;;;;;;;;;;8.10;93.80;;;;;;4707946;27;20373;-72
2021/12/03 00:24:47;;;;;;;;;;;8.10;93.70;;;;;;4706652;27;19924;-72
2021/12/03 00:27:04;;;;;;;;;;;8.10;93.70;;;;;;4707872;27;19939;-72
2021/12/03 00:29:22;;;;;;;;;;;8.10;93.70;;;;;;4705662;27;20298;-71
2021/12/03 00:31:38;;;;;;;;;;;8.10;93.60;;;;;;4706658;27;20369;-72
2021/12/03 00:33:55;;;;;;;;;;;8.00;93.60;;;;;;4706624;27;19923;-72
2021/12/03 00:36:14;;;;;;;;;;;8.00;93.80;;;;;;4706555;27;19927;-72
2021/12/03 00:38:35;;;;;;;;;;;8.00;94.00;;;;;;4706554;27;20529;-72
2021/12/03 00:40:52;;;;;;;;;;;8.00;93.90;;;;;;4707686;27;19959;-71
2021/12/03 00:43:08;;;;;;;;;;;8.00;93.80;;;;;;4707880;27;19976;-72
2021/12/03 00:45:26;;;;;;;;;;;8.00;93.90;;;;;;4707770;27;20313;-72
2021/12/03 00:47:43;;;;;;;;;;;8.00;94.00;;;;;;4706143;27;20420;-72
2021/12/03 00:50:00;;;;;;;;;;;8.00;94.00;;;;;;4706483;27;20293;-72
2021/12/03 00:52:19;;;;;;;;;;;8.10;94.00;;;;;;4706420;27;19923;-71
2021/12/03 00:54:35;;;;;;;;;;;8.00;94.00;;;;;;4707771;27;19949;-71
2021/12/03 00:56:54;;;;;;;;;;;8.10;94.00;;;;;;4689104;27;19924;-72
2021/12/03 00:59:14;;;;;;;;;;;8.10;93.90;;;;;;4706471;27;19924;-72
2021/12/03 01:01:32;;;;;;;;;;;8.10;94.10;;;;;;4707432;27;20416;-72
2021/12/03 01:03:51;;;;;;;;;;;8.10;94.00;;;;;;4705366;27;19924;-72
2021/12/03 01:06:07;;;;;;;;;;;8.10;94.00;;;;;;4705358;27;19974;-72
2021/12/03 01:08:24;;;;;;;;;;;8.10;94.00;;;;;;4707152;27;20381;-72
2021/12/03 01:10:42;;;;;;;;;;;8.10;94.00;;;;;;4707359;27;19927;-72
2021/12/03 01:12:59;;;;;;;;;;;8.10;94.00;;;;;;4705906;27;20374;-72
2021/12/03 01:15:18;;;;;;;;;;;8.10;94.00;;;;;;4707194;27;19924;-72
2021/12/03 01:17:36;;;;;;;;;;;8.10;94.10;;;;;;4706143;27;19932;-72
2021/12/03 01:19:53;;;;;;;;;;;8.10;94.10;;;;;;4705957;27;20007;-72
2021/12/03 01:22:09;;;;;;;;;;;8.10;94.00;;;;;;4705674;27;19930;-72
2021/12/03 01:24:26;;;;;;;;;;;8.10;94.00;;;;;;4707101;27;19923;-72
2021/12/03 01:26:44;;;;;;;;;;;8.10;94.00;;;;;;4706638;27;20399;-72
2021/12/03 01:29:01;;;;;;;;;;;8.10;94.00;;;;;;4705859;27;19955;-72
2021/12/03 01:31:18;;;;;;;;;;;8.10;94.00;;;;;;4706710;27;19930;-72
2021/12/03 01:33:36;;;;;;;;;;;8.10;94.00;;;;;;4705810;27;20006;-72
2021/12/03 01:35:52;;;;;;;;;;;8.10;94.00;;;;;;4706571;27;19927;-72
2021/12/03 01:38:09;;;;;;;;;;;8.10;94.00;;;;;;4707171;27;19923;-72
2021/12/03 01:40:26;;;;;;;;;;;8.10;94.00;;;;;;4706567;27;20349;-72
2021/12/03 01:42:44;;;;;;;;;;;8.10;94.00;;;;;;4705386;27;20280;-72
2021/12/03 01:45:01;;;;;;;;;;;8.10;94.00;;;;;;4706738;27;20306;-72
2021/12/03 01:47:18;;;;;;;;;;;8.10;94.00;;;;;;4706780;27;20293;-72
2021/12/03 01:49:36;;;;;;;;;;;8.10;94.10;;;;;;4705218;27;20381;-72
2021/12/03 01:51:52;;;;;;;;;;;8.10;94.00;;;;;;4706582;27;20420;-72
2021/12/03 01:54:09;;;;;;;;;;;8.10;94.00;;;;;;4706488;27;20284;-72
2021/12/03 01:56:25;;;;;;;;;;;8.10;94.00;;;;;;4706538;27;20423;-72
2021/12/03 01:58:42;;;;;;;;;;;8.10;93.90;;;;;;4705170;27;20101;-72
2021/12/03 02:01:01;;;;;;;;;;;8.10;94.00;;;;;;4706266;27;19931;-72
2021/12/03 02:03:18;;;;;;;;;;;8.10;94.00;;;;;;4706372;27;20342;-72
2021/12/03 02:05:36;;;;;;;;;;;8.10;94.00;;;;;;4705335;27;20293;-72
2021/12/03 02:07:53;;;;;;;;;;;8.10;94.00;;;;;;4706582;27;19975;-72
2021/12/03 02:10:13;;;;;;;;;;;8.10;93.90;;;;;;4706060;27;20361;-72
2021/12/03 02:12:29;;;;;;;;;;;8.00;93.90;;;;;;4706500;27;20415;-72
2021/12/03 02:14:46;;;;;;;;;;;8.00;93.90;;;;;;4705776;27;20446;-72
2021/12/03 02:17:05;;;;;;;;;;;8.00;94.00;;;;;;4705033;27;20298;-72
2021/12/03 02:19:22;;;;;;;;;;;8.00;93.90;;;;;;4705820;27;19924;-72
2021/12/03 02:21:40;;;;;;;;;;;8.00;93.90;;;;;;4706114;27;19923;-72
2021/12/03 02:23:56;;;;;;;;;;;8.00;93.70;;;;;;4704525;27;19923;-72
2021/12/03 02:26:14;;;;;;;;;;;8.00;93.80;;;;;;4705870;27;19930;-72
2021/12/03 02:28:34;;;;;;;;;;;7.90;93.90;;;;;;4706159;27;20372;-72
2021/12/03 02:30:51;;;;;;;;;;;7.90;93.90;;;;;;4687827;27;19976;-72
2021/12/03 02:33:10;;;;;;;;;;;7.90;94.00;;;;;;4704591;27;19923;-72
2021/12/03 02:35:27;;;;;;;;;;;7.90;94.00;;;;;;4705849;27;20397;-72
2021/12/03 02:37:45;;;;;;;;;;;7.90;94.00;;;;;;4704457;27;20093;-72
2021/12/03 02:40:02;;;;;;;;;;;7.90;94.10;;;;;;4705247;27;20304;-72
2021/12/03 02:42:19;;;;;;;;;;;7.90;94.00;;;;;;4704397;27;19923;-72
2021/12/03 02:44:35;;;;;;;;;;;7.90;93.90;;;;;;4705815;27;20385;-72
2021/12/03 02:46:52;;;;;;;;;;;7.90;94.00;;;;;;4705905;27;19924;-72
2021/12/03 02:49:14;;;;;;;;;;;7.90;94.00;;;;;;4704108;28;19924;-73
2021/12/03 02:51:30;;;;;;;;;;;7.90;94.00;;;;;;4704171;27;19923;-72
2021/12/03 02:53:50;;;;;;;;;;;7.90;94.00;;;;;;4704101;28;19924;-72
2021/12/03 02:56:07;;;;;;;;;;;7.80;93.90;;;;;;4705691;27;19949;-72
2021/12/03 02:58:24;;;;;;;;;;;7.80;94.00;;;;;;4705524;27;19927;-72
2021/12/03 03:00:42;;;;;;;;;;;7.80;94.00;;;;;;4705814;27;20010;-72
2021/12/03 03:02:58;;;;;;;;;;;7.80;94.10;;;;;;4705614;27;19923;-72
2021/12/03 03:05:16;;;;;;;;;;;7.80;94.10;;;;;;4705650;27;19959;-72
2021/12/03 03:07:33;;;;;;;;;;;7.90;94.10;;;;;;4705517;27;20351;-72
2021/12/03 03:09:51;;;;;;;;;;;7.90;94.10;;;;;;4705611;27;20306;-72
2021/12/03 03:12:08;;;;;;;;;;;7.90;94.10;;;;;;4705600;27;19962;-72
2021/12/03 03:14:24;;;;;;;;;;;7.90;94.10;;;;;;4704113;28;20321;-71
2021/12/03 03:16:41;;;;;;;;;;;7.90;94.20;;;;;;4705555;27;19955;-72
2021/12/03 03:18:58;;;;;;;;;;;7.90;94.20;;;;;;4704208;28;20325;-72
2021/12/03 03:21:16;;;;;;;;;;;7.90;94.30;;;;;;4705515;27;19993;-72
2021/12/03 03:23:34;;;;;;;;;;;8.00;94.20;;;;;;4705230;28;19930;-72
2021/12/03 03:25:52;;;;;;;;;;;7.90;94.30;;;;;;4705352;27;19931;-72
2021/12/03 03:28:08;;;;;;;;;;;8.00;94.30;;;;;;4703856;28;19931;-72
2021/12/03 03:30:25;;;;;;;;;;;8.00;94.20;;;;;;4705736;27;20396;-72
2021/12/03 03:32:44;;;;;;;;;;;8.00;94.20;;;;;;4703778;28;19954;-72
2021/12/03 03:35:01;;;;;;;;;;;8.00;94.30;;;;;;4704228;28;19923;-72
2021/12/03 03:37:21;;;;;;;;;;;8.00;94.30;;;;;;4703914;28;19923;-72
2021/12/03 03:39:37;;;;;;;;;;;8.00;94.30;;;;;;4705793;27;20239;-72
2021/12/03 03:41:55;;;;;;;;;;;8.00;94.40;;;;;;4704951;28;19927;-72
2021/12/03 03:44:15;;;;;;;;;;;8.00;94.20;;;;;;4705506;27;20415;-72
2021/12/03 03:46:31;;;;;;;;;;;8.10;94.30;;;;;;4704014;28;20370;-72
2021/12/03 03:48:48;;;;;;;;;;;8.00;94.20;;;;;;4703839;28;20420;-72
2021/12/03 03:51:05;;;;;;;;;;;8.00;94.20;;;;;;4705177;27;20385;-72
2021/12/03 03:53:21;;;;;;;;;;;8.00;94.00;;;;;;4705150;27;20021;-72
2021/12/03 03:55:38;;;;;;;;;;;8.00;94.00;;;;;;4703916;28;20026;-72
2021/12/03 03:57:57;;;;;;;;;;;8.00;94.10;;;;;;4703639;28;20419;-72
2021/12/03 04:00:15;;;;;;;;;;;8.00;94.10;;;;;;4705187;27;19923;-72
2021/12/03 04:02:33;;;;;;;;;;;7.90;94.00;;;;;;4705070;27;20296;-72
2021/12/03 04:04:51;;;;;;;;;;;7.90;94.00;;;;;;4707596;27;19930;-72
2021/12/03 04:07:08;;;;;;;;;;;7.90;94.00;;;;;;4706734;27;20305;-72
2021/12/03 04:09:25;;;;;;;;;;;7.80;94.10;;;;;;4707230;27;19996;-71
2021/12/03 04:11:44;;;;;;;;;;;7.80;94.10;;;;;;4706822;27;19924;-72
2021/12/03 04:14:02;;;;;;;;;;;7.80;94.10;;;;;;4708694;27;19973;-72
2021/12/03 04:16:19;;;;;;;;;;;7.80;94.10;;;;;;4706740;27;20328;-72
2021/12/03 04:18:36;;;;;;;;;;;7.80;94.40;;;;;;4707257;27;19951;-72
2021/12/03 04:20:54;;;;;;;;;;;7.80;94.10;;;;;;4706823;27;19931;-72
2021/12/03 04:23:15;;;;;;;;;;;7.70;94.20;;;;;;4708497;27;20387;-72
2021/12/03 04:25:31;;;;;;;;;;;7.80;94.20;;;;;;4708058;27;19928;-71
2021/12/03 04:27:48;;;;;;;;;;;7.70;94.00;;;;;;4706688;27;19923;-70
2021/12/03 04:30:09;;;;;;;;;;;7.70;93.90;;;;;;4708026;27;19927;-71
2021/12/03 04:32:26;;;;;;;;;;;7.60;94.40;;;;;;4706661;27;19950;-71
2021/12/03 04:34:45;;;;;;;;;;;7.60;94.10;;;;;;4706805;27;19930;-72
2021/12/03 04:37:01;;;;;;;;;;;7.60;94.10;;;;;;4707815;27;20292;-71
2021/12/03 04:39:18;;;;;;;;;;;7.60;94.20;;;;;;4706680;27;19976;-71
2021/12/03 04:41:34;;;;;;;;;;;7.60;94.20;;;;;;4707587;27;19930;-71
2021/12/03 04:43:51;;;;;;;;;;;7.60;94.10;;;;;;4707894;27;20282;-71
2021/12/03 04:46:09;;;;;;;;;;;7.60;94.10;;;;;;4707705;27;19958;-71
2021/12/03 04:48:25;;;;;;;;;;;7.50;94.00;;;;;;4708440;27;19928;-71
2021/12/03 04:50:42;;;;;;;;;;;7.50;94.10;;;;;;4707385;27;20339;-71
2021/12/03 04:52:59;;;;;;;;;;;7.50;94.10;;;;;;4706390;27;20004;-70
2021/12/03 04:55:16;;;;;;;;;;;7.50;94.00;;;;;;4707412;27;20022;-72
2021/12/03 04:57:33;;;;;;;;;;;7.50;94.00;;;;;;4707698;27;19923;-72
2021/12/03 04:59:50;;;;;;;;;;;7.50;94.10;;;;;;4706127;27;20319;-72
2021/12/03 05:02:08;;;;;;;;;;;7.40;94.10;;;;;;4707542;27;20325;-71
2021/12/03 05:04:24;;;;;;;;;;;7.40;94.00;;;;;;4707319;27;19923;-71
2021/12/03 05:06:54;;;;;;;;;;;7.40;94.00;;;;;;4706148;27;20355;-70
2021/12/03 05:09:13;;;;;;;;;;;7.30;93.90;;;;;;4707477;27;20420;-72
2021/12/03 05:11:33;;;;;;;;;;;7.30;94.00;;;;;;4705782;27;19930;-73
2021/12/03 05:13:50;;;;;;;;;;;7.30;94.10;;;;;;4705981;27;20413;-73
2021/12/03 05:16:06;;;;;;;;;;;7.30;94.10;;;;;;4705279;27;20366;-72
2021/12/03 05:18:25;;;;;;;;;;;7.30;94.10;;;;;;4706064;27;20351;-72
2021/12/03 05:20:42;;;;;;;;;;;7.30;94.10;;;;;;4705522;27;19924;-72
2021/12/03 05:22:59;;;;;;;;;;;7.30;94.20;;;;;;4707230;27;19962;-72
2021/12/03 05:25:16;;;;;;;;;;;7.30;94.00;;;;;;4706743;27;19953;-72
2021/12/03 05:27:32;;;;;;;;;;;7.20;93.90;;;;;;4707149;27;19974;-72
2021/12/03 05:29:49;;;;;;;;;;;7.20;94.00;;;;;;4706726;27;19931;-69
2021/12/03 05:32:06;;;;;;;;;;;7.10;93.90;;;;;;4707090;27;19923;-71
2021/12/03 05:34:24;;;;;;;;;;;7.10;93.90;;;;;;4706647;27;20381;-71
2021/12/03 05:36:41;;;;;;;;;;;7.10;93.90;;;;;;4707008;27;20388;-71
2021/12/03 05:39:00;;;;;;;;;;;7.00;93.90;;;;;;4706735;27;19928;-70
2021/12/03 05:41:23;;;;;;;;;;;7.00;94.00;;;;;;4705377;27;20442;-71
2021/12/03 05:43:42;;;;;;;;;;;7.00;94.10;;;;;;4705541;27;20446;-71
2021/12/03 05:45:59;;;;;;;;;;;7.00;94.20;;;;;;4705162;27;20340;-71
2021/12/03 05:48:15;;;;;;;;;;;7.00;94.10;;;;;;4705325;27;19927;-71
2021/12/03 05:50:33;;;;;;;;;;;7.00;94.00;;;;;;4706146;27;19924;-71
2021/12/03 05:52:51;;;;;;;;;;;7.00;94.10;;;;;;4706753;27;19923;-71
2021/12/03 05:55:08;;;;;;;;;;;7.00;93.90;;;;;;4706289;27;20318;-71
2021/12/03 05:57:25;;;;;;;;;;;6.90;94.00;;;;;;4705294;27;19963;-71
2021/12/03 05:59:42;;;;;;;;;;;6.90;94.00;;;;;;4704650;27;19930;-71
2021/12/03 06:01:58;;;;;;;;;;;6.90;93.90;;;;;;4705312;27;19923;-71
2021/12/03 06:04:17;;;;;;;;;;;6.90;94.10;;;;;;4704681;27;20305;-71
2021/12/03 06:06:35;;;;;;;;;;;6.90;94.00;;;;;;4706457;27;19924;-71
2021/12/03 06:08:51;;;;;;;;;;;6.90;94.00;;;;;;4705926;27;19923;-71
2021/12/03 06:11:08;;;;;;;;;;;6.80;94.00;;;;;;4706298;27;19949;-71
2021/12/03 06:13:27;;;;;;;;;;;6.80;94.10;;;;;;4704676;27;19923;-71
2021/12/03 06:15:44;;;;;;;;;;;6.80;93.90;;;;;;4704781;27;19931;-70
2021/12/03 06:18:00;;;;;;;;;;;6.80;93.90;;;;;;4706036;27;20366;-72
2021/12/03 06:20:17;;;;;;;;;;;6.70;93.80;;;;;;4704829;27;19927;-72
2021/12/03 06:22:35;;;;;;;;;;;6.70;93.90;;;;;;4706085;27;20400;-72
2021/12/03 06:24:52;;;;;;;;;;;6.70;93.90;;;;;;4704410;27;19930;-70
2021/12/03 06:27:09;;;;;;;;;;;6.60;93.80;;;;;;4704927;27;19927;-71
2021/12/03 06:29:25;;;;;;;;;;;6.60;94.00;;;;;;4705625;27;19966;-71
2021/12/03 06:31:44;;;;;;;;;;;6.60;94.00;;;;;;4706303;27;20200;-71
2021/12/03 06:34:01;;;;;;;;;;;6.70;94.00;;;;;;4705715;27;19927;-71
2021/12/03 06:36:17;;;;;;;;;;;6.60;93.90;;;;;;4704460;27;19927;-72
2021/12/03 06:38:39;;;;;;;;;;;6.60;93.70;;;;;;4703876;27;20014;-68
2021/12/03 06:40:56;;;;;;;;;;;6.50;93.70;;;;;;4706483;27;20308;-68
2021/12/03 06:43:12;;;;;;;;;;;6.50;93.70;;;;;;4705392;27;19927;-71
2021/12/03 06:45:29;;;;;;;;;;;6.50;93.60;;;;;;4704527;27;19931;-71
2021/12/03 06:47:46;;;;;;;;;;;6.40;93.70;;;;;;4703948;27;19928;-71
2021/12/03 06:50:09;;;;;;;;;;;6.40;93.70;;;;;;4704428;27;20454;-70
2021/12/03 06:52:26;;;;;;;;;;;6.40;93.70;;;;;;4705301;27;20521;-70
2021/12/03 06:54:51;;;;;;;;;;;6.30;93.80;;;;;;4705608;27;19924;-70
2021/12/03 06:57:08;;;;;;;;;;;6.40;93.80;;;;;;4705479;27;19924;-70
2021/12/03 06:59:25;;;;;;;;;;;6.30;93.80;;;;;;4704262;28;19930;-71
2021/12/03 07:01:41;;;;;;;;;;;6.30;93.80;;;;;;4705600;27;19924;-71
2021/12/03 07:03:58;;;;;;;;;;;6.30;93.80;;;;;;4704011;28;20018;-71
2021/12/03 07:06:14;;;;;;;;;;;6.30;93.70;;;;;;4704382;28;20436;-69
2021/12/03 07:08:31;;;;;;;;;;;6.20;93.50;;;;;;4704043;28;19924;-70
2021/12/03 07:10:49;;;;;;;;;;;6.20;93.70;;;;;;4705468;27;19967;-71
2021/12/03 07:13:07;;;;;;;;;;;6.20;93.80;;;;;;4705384;27;19924;-70
2021/12/03 07:15:26;;;;;;;;;;;6.20;93.80;;;;;;4704397;28;19968;-71
2021/12/03 07:17:42;;;;;;;;;;;6.20;93.90;;;;;;4705392;27;20355;-71
2021/12/03 07:19:58;;;;;;;;;;;6.20;93.90;;;;;;4705706;27;20381;-71
2021/12/03 07:22:15;;;;;;;;;;;6.20;94.00;;;;;;4703676;28;20065;-70
2021/12/03 07:24:32;;;;;;;;;;;6.20;94.00;;;;;;4704324;28;20015;-70
2021/12/03 07:26:49;;;;;;;;;;;6.20;93.80;;;;;;4704724;27;20409;-70
2021/12/03 07:29:08;;;;;;;;;;;6.20;93.90;;;;;;4705655;27;20371;-70
2021/12/03 07:31:28;;;;;;;;;;;6.20;93.80;;;;;;4703902;28;19923;-70
2021/12/03 07:33:46;;;;;;;;;;;6.20;93.80;;;;;;4705427;27;20393;-70
2021/12/03 07:36:05;;;;;;;;;;;6.20;94.00;;;;;;4703854;28;20465;-70
2021/12/03 07:38:21;;;;;;;;;;;6.20;94.00;;;;;;4705719;27;20317;-71
2021/12/03 07:40:38;;;;;;;;;;;6.30;94.00;;;;;;4708895;27;20434;-71
2021/12/03 07:42:56;;;;;;;;;;;6.20;93.80;;;;;;4707326;27;20028;-71
2021/12/03 07:45:14;;;;;;;;;;;6.20;94.00;;;;;;4707609;27;19923;-71
2021/12/03 07:47:30;;;;;;;;;;;6.30;94.20;;;;;;4708835;27;20364;-71
2021/12/03 07:49:48;;;;;;;;;;;6.30;94.10;;;;;;4709032;27;19927;-72
2021/12/03 07:52:09;;;;;;;;;;;6.30;94.00;;;;;;4707216;27;19927;-71
2021/12/03 07:54:26;;;;;;;;;;;6.30;94.00;;;;;;4707858;27;19931;-69
2021/12/03 07:56:45;;;;;;;;;;;6.40;94.00;;;;;;4708410;27;20389;-71
2021/12/03 07:59:04;;;;;;;;;;;6.30;93.80;;;;;;4708852;27;19930;-71
2021/12/03 08:01:21;;;;;;;;;;;6.30;93.80;;;;;;4708423;27;19959;-72
2021/12/03 08:03:38;;;;;;;;;;;6.30;93.70;;;;;;4708803;27;20297;-72
2021/12/03 08:05:59;;;;;;;;;;;6.30;93.40;;;;;;4707124;27;19924;-72
2021/12/03 08:08:21;;;;;;;;;;;6.20;93.90;;;;;;4708752;27;20435;-71
2021/12/03 08:10:40;;;;;;;;;;;6.30;93.90;;;;;;4706932;27;20396;-71
2021/12/03 08:12:59;;;;;;;;;;;6.30;94.20;;;;;;4708284;27;20014;-71
2021/12/03 08:15:17;;;;;;;;;;;6.30;94.00;;;;;;4708563;27;19962;-71
2021/12/03 08:17:34;;;;;;;;;;;6.30;93.50;;;;;;4709220;27;20350;-71
2021/12/03 08:19:51;;;;;;;;;;;6.20;93.50;;;;;;4708356;27;20361;-71
2021/12/03 08:22:07;;;;;;;;;;;6.20;93.70;;;;;;4706596;27;20389;-71
2021/12/03 08:24:24;;;;;;;;;;;6.20;93.80;;;;;;4708392;27;19984;-71
2021/12/03 08:26:41;;;;;;;;;;;6.20;93.80;;;;;;4707627;27;19923;-70
2021/12/03 08:28:57;;;;;;;;;;;6.20;93.80;;;;;;4706911;27;19986;-71
2021/12/03 08:31:15;;;;;;;;;;;6.20;93.90;;;;;;4707720;27;19923;-71
2021/12/03 08:33:32;;;;;;;;;;;6.20;93.80;;;;;;4708088;27;20361;-71
2021/12/03 08:35:48;;;;;;;;;;;6.30;93.90;;;;;;4706319;27;19927;-71
2021/12/03 08:38:05;;;;;;;;;;;6.30;94.00;;;;;;4706946;27;19931;-69
2021/12/03 08:40:24;;;;;;;;;;;6.30;93.90;;;;;;4706320;27;19923;-71
2021/12/03 08:42:41;;;;;;;;;;;6.30;93.90;;;;;;4708073;27;19935;-70
2021/12/03 08:44:59;;;;;;;;;;;6.30;94.40;;;;;;4707726;27;20365;-72
2021/12/03 08:47:17;;;;;;;;;;;6.40;94.10;;;;;;4707884;27;20512;-72
2021/12/03 08:49:38;;;;;;;;;;;6.40;93.90;;;;;;4706854;27;19951;-70
2021/12/03 08:52:28;;;;;;;;;;;6.50;94.00;;;;;;4706244;27;19923;-72
2021/12/03 08:54:51;;;;;;;;;;;6.50;94.00;;;;;;4706652;27;19923;-71
2021/12/03 08:57:10;;;;;;;;;;;6.50;94.00;;;;;;4707414;27;20422;-70
2021/12/03 08:59:28;;;;;;;;;;;6.60;94.00;;;;;;4706424;27;19927;-71
2021/12/03 09:01:45;;;;;;;;;;;6.60;93.80;;;;;;4707207;27;20384;-71
2021/12/03 09:04:04;;;;;;;;;;;6.60;93.70;;;;;;4707911;27;19931;-71
2021/12/03 09:06:21;;;;;;;;;;;6.60;93.90;;;;;;4707045;27;20328;-71
2021/12/03 09:08:37;;;;;;;;;;;6.60;93.80;;;;;;4707432;27;19924;-71
2021/12/03 09:10:54;;;;;;;;;;;6.60;93.80;;;;;;4705734;27;19923;-71
2021/12/03 09:13:10;;;;;;;;;;;6.70;94.00;;;;;;4706385;27;20384;-71
2021/12/03 09:15:32;;;;;;;;;;;6.70;94.00;;;;;;4705704;27;19927;-70
2021/12/03 09:20:33;;;;;;;;;;;6.70;94.00;;;;;;4704086;27;19923;-69
2021/12/03 09:22:52;;;;;;;;;;;6.70;93.80;;;;;;4706857;27;19931;-70
2021/12/03 09:25:09;;;;;;;;;;;6.70;94.00;;;;;;4707448;27;19927;-70
2021/12/03 09:27:28;;;;;;;;;;;6.80;94.00;;;;;;4705206;27;20446;-71
2021/12/03 09:29:48;;;;;;;;;;;6.80;93.90;;;;;;4707318;27;19923;-70
2021/12/03 09:32:05;;;;;;;;;;;6.80;93.90;;;;;;4706778;27;20355;-71
2021/12/03 09:34:24;;;;;;;;;;;6.80;93.70;;;;;;4707675;27;19930;-71
2021/12/03 09:36:43;;;;;;;;;;;6.80;93.70;;;;;;4706471;27;20419;-71
2021/12/03 09:39:03;;;;;;;;;;;6.90;93.50;;;;;;4707016;27;20343;-72
2021/12/03 09:41:20;;;;;;;;;;;6.90;93.70;;;;;;4705166;27;19959;-72
2021/12/03 09:43:39;;;;;;;;;;;6.90;93.60;;;;;;4705567;27;19924;-71
2021/12/03 09:46:05;;;;;;;;;;;7.00;93.80;;;;;;4706498;27;20316;-69
2021/12/03 09:48:31;;;;;;;;;;;7.00;93.80;;;;;;4705250;27;20023;-70
2021/12/03 09:50:48;;;;;;;;;;;7.10;93.60;;;;;;4706770;27;20260;-71
2021/12/03 09:53:19;;;;;;;;;;;7.20;93.50;;;;;;4705356;27;19931;-70
2021/12/03 09:55:36;;;;;;;;;;;7.20;93.50;;;;;;4705551;27;20388;-70
2021/12/03 09:58:04;;;;;;;;;;;7.20;93.50;;;;;;4704812;27;19923;-71
2021/12/03 10:00:34;;;;;;;;;;;7.30;93.30;;;;;;4706797;27;19928;-71
2021/12/03 10:13:19;;;;;;;;;;;7.20;92.80;;;;;;4649750;27;19924;-71
2021/12/03 10:15:47;;;;;;;;;;;7.10;93.00;;;;;;4706325;27;20297;-70
2021/12/03 10:18:09;;;;;;;;;;;7.10;92.70;;;;;;4705196;27;20389;-72
2021/12/03 10:20:32;;;;;;;;;;;7.10;92.80;;;;;;4705852;27;20389;-71
2021/12/03 10:36:47;;;;;;;;;;;7.10;92.60;;;;;;4703797;27;19923;-71
2021/12/03 10:39:30;;;;;;;;;;;7.10;92.80;;;;;;4705057;27;20376;-72
2021/12/03 10:41:56;;;;;;;;;;;7.10;92.80;;;;;;4702909;27;19923;-73
2021/12/03 10:44:27;;;;;;;;;;;7.10;93.10;;;;;;4703536;27;20023;-74
2021/12/03 10:47:04;;;;;;;;;;;7.20;93.00;;;;;;4703236;27;19969;-73
2021/12/03 11:00:46;;;;;;;;;;;7.30;93.10;;;;;;4702960;28;19927;-73
2021/12/03 11:30:22;;;;;;;;;;;7.30;92.00;;;;;;4668295;28;20400;-72
2021/12/03 11:35:51;;;;;;;;;;;7.50;92.30;;;;;;4707494;27;19934;-73
2021/12/03 11:44:12;;;;;;;;;;;7.50;91.50;;;;;;4701260;27;19924;-72
2021/12/03 12:41:13;;;;;;;;;;;7.50;90.50;;;;;;4664806;28;19943;-73
2021/12/03 13:15:54;;;;;;;;;;;7.40;90.60;;;;;;4660615;28;20286;-70
2021/12/03 14:01:26;;;;;;;;;;;6.90;89.80;;;;;;4647383;28;20387;-71
2021/12/03 14:09:31;;;;;;;;;;;6.80;90.00;;;;;;4647918;28;19962;-71
